createdAt,value
2023-04-22T00:02:09.712Z,5.72
2023-04-22T00:04:37.770Z,6.75
2023-04-22T00:07:05.378Z,5.95
2023-04-22T00:09:32.809Z,5.28
2023-04-22T00:12:01.857Z,6.20
2023-04-22T00:14:29.257Z,6.68
2023-04-22T00:16:57.464Z,5.50
2023-04-22T00:19:25.675Z,5.80
2023-04-22T00:21:53.164Z,5.35
2023-04-22T00:24:20.579Z,5.30
2023-04-22T00:26:48.246Z,5.90
2023-04-22T00:29:15.659Z,5.22
2023-04-22T00:31:43.063Z,5.50
2023-04-22T00:34:10.849Z,5.05
2023-04-22T00:36:38.220Z,5.82
2023-04-22T00:39:06.433Z,4.70
2023-04-22T00:41:34.493Z,5.35
2023-04-22T00:44:01.919Z,4.70
2023-04-22T00:46:29.546Z,5.50
2023-04-22T00:48:57.510Z,4.68
2023-04-22T00:51:24.900Z,4.95
2023-04-22T00:53:52.507Z,5.60
2023-04-22T00:56:20.782Z,5.87
2023-04-22T00:58:48.233Z,5.53
2023-04-22T01:01:15.823Z,5.70
2023-04-22T01:03:43.695Z,6.00
2023-04-22T01:06:11.420Z,5.87
2023-04-22T01:08:40.889Z,6.25
2023-04-22T01:11:08.617Z,6.22
2023-04-22T01:13:38.153Z,5.20
2023-04-22T01:16:08.918Z,4.68
2023-04-22T01:18:37.233Z,4.97
2023-04-22T01:21:05.572Z,5.07
2023-04-22T01:23:33.016Z,5.45
2023-04-22T01:26:00.849Z,4.60
2023-04-22T01:28:28.778Z,5.25
2023-04-22T01:30:56.367Z,5.72
2023-04-22T01:33:24.210Z,5.78
2023-04-22T01:35:52.056Z,5.10
2023-04-22T01:38:19.644Z,5.20
2023-04-22T01:40:47.407Z,5.55
2023-04-22T01:43:14.824Z,5.60
2023-04-22T01:45:42.599Z,6.12
2023-04-22T01:48:11.265Z,5.47
2023-04-22T01:50:38.726Z,5.93
2023-04-22T01:53:07.555Z,6.32
2023-04-22T01:55:37.982Z,6.47
2023-04-22T01:58:05.693Z,5.70
2023-04-22T02:00:33.179Z,6.05
2023-04-22T02:03:01.041Z,6.85
2023-04-22T02:05:28.614Z,7.30
2023-04-22T02:07:56.434Z,6.70
2023-04-22T02:10:24.145Z,6.80
2023-04-22T02:12:51.510Z,6.57
2023-04-22T02:15:18.951Z,7.22
2023-04-22T02:17:47.030Z,6.80
2023-04-22T02:20:14.664Z,7.62
2023-04-22T02:22:43.559Z,6.97
2023-04-22T02:25:12.280Z,6.43
2023-04-22T02:27:40.030Z,7.30
2023-04-22T02:30:09.696Z,6.68
2023-04-22T02:32:38.865Z,6.72
2023-04-22T02:35:06.987Z,7.25
2023-04-22T02:37:34.448Z,6.97
2023-04-22T02:40:02.249Z,7.15
2023-04-22T02:42:30.475Z,7.03
2023-04-22T02:44:57.915Z,6.65
2023-04-22T02:47:25.700Z,6.70
2023-04-22T02:49:53.167Z,6.12
2023-04-22T02:52:20.776Z,6.40
2023-04-22T02:54:48.547Z,6.45
2023-04-22T02:57:15.987Z,6.47
2023-04-22T02:59:43.563Z,5.80
2023-04-22T03:02:13.340Z,6.07
2023-04-22T03:04:41.600Z,6.55
2023-04-22T03:07:09.554Z,6.47
2023-04-22T03:09:37.407Z,6.00
2023-04-22T03:12:05.226Z,5.53
2023-04-22T03:14:32.685Z,5.75
2023-04-22T03:17:00.425Z,5.53
2023-04-22T03:19:28.067Z,5.32
2023-04-22T03:21:56.555Z,5.90
2023-04-22T03:24:24.310Z,5.68
2023-04-22T03:26:52.003Z,5.43
2023-04-22T03:29:19.465Z,6.57
2023-04-22T03:31:47.263Z,5.87
2023-04-22T03:34:14.972Z,6.12
2023-04-22T03:36:42.962Z,6.12
2023-04-22T03:39:11.280Z,6.50
2023-04-22T03:41:39.427Z,6.03
2023-04-22T03:44:06.827Z,6.05
2023-04-22T03:46:35.009Z,6.62
2023-04-22T03:49:03.251Z,6.45
2023-04-22T03:51:32.248Z,6.97
2023-04-22T03:54:00.802Z,6.18
2023-04-22T03:56:28.886Z,6.53
2023-04-22T03:58:56.528Z,6.30
2023-04-22T04:01:24.566Z,6.32
2023-04-22T04:03:53.685Z,6.03
2023-04-22T04:06:21.742Z,5.68
2023-04-22T04:08:49.190Z,6.03
2023-04-22T04:11:17.089Z,6.03
2023-04-22T04:13:44.805Z,6.25
2023-04-22T04:16:12.874Z,5.97
2023-04-22T04:18:41.472Z,6.00
2023-04-22T04:21:09.033Z,6.00
2023-04-22T04:23:37.922Z,5.80
2023-04-22T04:26:05.783Z,5.75
2023-04-22T04:28:35.240Z,5.47
2023-04-22T04:31:03.058Z,6.25
2023-04-22T04:33:32.542Z,5.90
2023-04-22T04:36:00.699Z,6.05
2023-04-22T04:38:29.008Z,5.47
2023-04-22T04:40:56.858Z,6.45
2023-04-22T04:43:25.881Z,6.12
2023-04-22T04:45:54.143Z,6.05
2023-04-22T04:48:25.003Z,5.80
2023-04-22T04:50:54.203Z,6.57
2023-04-22T04:53:22.575Z,5.28
2023-04-22T04:55:50.009Z,6.37
2023-04-22T04:58:17.971Z,5.80
2023-04-22T05:00:46.937Z,5.47
2023-04-22T05:03:15.803Z,5.68
2023-04-22T05:05:46.276Z,5.90
2023-04-22T05:08:14.049Z,5.55
2023-04-22T05:10:42.493Z,6.18
2023-04-22T05:13:09.990Z,5.80
2023-04-22T05:15:37.855Z,6.22
2023-04-22T05:18:05.594Z,5.87
2023-04-22T05:20:35.907Z,5.40
2023-04-22T05:23:04.467Z,5.65
2023-04-22T05:25:32.641Z,5.22
2023-04-22T05:28:00.893Z,5.45
2023-04-22T05:30:30.003Z,6.00
2023-04-22T05:32:57.780Z,6.05
2023-04-22T05:35:25.231Z,5.68
2023-04-22T05:37:53.156Z,5.55
2023-04-22T05:40:20.791Z,5.10
2023-04-22T05:42:48.316Z,5.65
2023-04-22T05:45:16.162Z,5.28
2023-04-22T05:47:43.765Z,5.30
2023-04-22T05:50:11.574Z,5.28
2023-04-22T05:52:39.906Z,5.30
2023-04-22T05:55:08.215Z,5.53
2023-04-22T05:57:35.664Z,5.70
2023-04-22T06:00:04.952Z,6.18
2023-04-22T06:02:41.219Z,6.03
2023-04-22T06:05:09.760Z,5.30
2023-04-22T06:07:38.331Z,5.87
2023-04-22T06:10:07.575Z,5.47
2023-04-22T06:12:35.421Z,5.62
2023-04-22T06:15:03.158Z,4.72
2023-04-22T06:17:31.369Z,4.40
2023-04-22T06:19:59.391Z,4.90
2023-04-22T06:22:26.944Z,4.37
2023-04-22T06:24:54.417Z,4.45
2023-04-22T06:27:22.174Z,4.20
2023-04-22T06:29:49.666Z,5.00
2023-04-22T06:32:17.249Z,4.60
2023-04-22T06:34:45.140Z,4.20
2023-04-22T06:37:13.134Z,4.57
2023-04-22T06:39:41.013Z,4.60
2023-04-22T06:42:10.235Z,4.40
2023-04-22T06:44:38.524Z,4.20
2023-04-22T06:47:06.485Z,4.40
2023-04-22T06:49:38.637Z,4.57
2023-04-22T06:52:07.687Z,4.28
2023-04-22T06:54:35.282Z,3.95
2023-04-22T06:57:03.334Z,3.45
2023-04-22T06:59:30.819Z,3.47
2023-04-22T07:01:58.450Z,3.87
2023-04-22T07:04:29.286Z,3.50
2023-04-22T07:06:58.547Z,3.80
2023-04-22T07:09:26.653Z,3.20
2023-04-22T07:11:54.353Z,3.83
2023-04-22T07:14:21.785Z,3.75
2023-04-22T07:16:49.480Z,3.70
2023-04-22T07:19:17.011Z,4.07
2023-04-22T07:21:44.538Z,3.65
2023-04-22T07:24:13.240Z,3.83
2023-04-22T07:26:41.690Z,3.75
2023-04-22T07:29:09.164Z,3.78
2023-04-22T07:31:36.965Z,4.15
2023-04-22T07:34:04.714Z,3.78
2023-04-22T07:36:32.787Z,3.83
2023-04-22T07:39:00.460Z,3.95
2023-04-22T07:41:27.968Z,3.87
2023-04-22T07:43:55.752Z,5.20
2023-04-22T07:46:23.648Z,3.92
2023-04-22T07:48:51.146Z,3.90
2023-04-22T07:51:18.545Z,3.95
2023-04-22T07:53:46.405Z,3.75
2023-04-22T07:56:13.829Z,3.55
2023-04-22T07:58:41.205Z,4.12
2023-04-22T08:01:08.940Z,3.92
2023-04-22T08:03:36.951Z,3.95
2023-04-22T08:06:04.514Z,3.65
2023-04-22T08:08:31.950Z,3.83
2023-04-22T08:10:59.594Z,4.25
2023-04-22T08:13:27.056Z,4.03
2023-04-22T08:15:54.477Z,3.95
2023-04-22T08:18:22.248Z,4.22
2023-04-22T08:20:50.633Z,3.67
2023-04-22T08:23:18.087Z,4.10
2023-04-22T08:25:45.792Z,3.78
2023-04-22T08:28:13.211Z,4.22
2023-04-22T08:30:41.013Z,3.80
2023-04-22T08:33:08.780Z,4.00
2023-04-22T08:35:36.625Z,3.75
2023-04-22T08:38:04.023Z,3.72
2023-04-22T08:40:31.723Z,4.28
2023-04-22T08:42:59.194Z,3.47
2023-04-22T08:45:26.770Z,3.80
2023-04-22T08:47:54.721Z,3.85
2023-04-22T08:50:22.445Z,3.95
2023-04-22T08:52:49.910Z,4.20
2023-04-22T08:55:17.723Z,4.50
2023-04-22T08:57:45.388Z,4.00
2023-04-22T09:00:13.454Z,4.53
2023-04-22T09:02:44.942Z,3.80
2023-04-22T09:05:14.084Z,3.97
2023-04-22T09:07:42.051Z,3.60
2023-04-22T09:10:11.804Z,3.65
2023-04-22T09:12:41.178Z,3.90
2023-04-22T09:15:09.870Z,4.05
2023-04-22T09:17:41.416Z,4.18
2023-04-22T09:20:09.865Z,3.78
2023-04-22T09:22:42.820Z,3.87
2023-04-22T09:25:20.632Z,3.83
2023-04-22T09:27:52.135Z,3.78
2023-04-22T09:30:28.619Z,4.25
2023-04-22T09:33:00.563Z,4.07
2023-04-22T09:35:33.533Z,4.10
2023-04-22T09:38:02.680Z,4.20
2023-04-22T09:40:31.098Z,4.62
2023-04-22T09:43:02.544Z,4.10
2023-04-22T09:45:35.400Z,4.55
2023-04-22T09:48:04.208Z,3.62
2023-04-22T09:50:31.937Z,4.10
2023-04-22T09:53:05.365Z,3.97
2023-04-22T09:55:36.352Z,4.32
2023-04-22T09:58:14.743Z,4.80
2023-04-22T10:00:52.472Z,4.80
2023-04-22T10:03:20.446Z,4.82
2023-04-22T10:05:48.113Z,4.18
2023-04-22T10:08:16.780Z,3.80
2023-04-22T10:10:44.940Z,4.57
2023-04-22T10:13:12.465Z,4.35
2023-04-22T10:15:42.526Z,3.72
2023-04-22T10:18:13.036Z,4.03
2023-04-22T10:20:42.305Z,4.15
2023-04-22T10:23:16.134Z,4.22
2023-04-22T10:25:48.817Z,4.18
2023-04-22T10:28:17.585Z,3.90
2023-04-22T10:30:45.268Z,3.97
2023-04-22T10:33:23.670Z,4.35
2023-04-22T10:36:12.768Z,4.10
2023-04-22T10:38:42.381Z,4.32
2023-04-22T10:41:17.013Z,5.95
2023-04-22T10:43:48.779Z,5.50
2023-04-22T10:46:33.063Z,6.15
2023-04-22T10:49:07.144Z,4.30
2023-04-22T10:51:40.882Z,3.67
2023-04-22T10:54:31.412Z,4.20
2023-04-22T10:57:16.183Z,4.82
2023-04-22T10:59:54.458Z,3.92
2023-04-22T11:02:22.988Z,4.20
2023-04-22T11:04:54.427Z,3.97
2023-04-22T11:07:28.082Z,4.50
2023-04-22T11:10:05.407Z,4.10
2023-04-22T11:12:35.996Z,4.72
2023-04-22T11:15:08.029Z,4.00
2023-04-22T11:17:36.633Z,4.03
2023-04-22T11:20:05.267Z,4.10
2023-04-22T11:22:37.299Z,3.97
2023-04-22T11:25:06.077Z,3.80
2023-04-22T11:27:33.523Z,3.97
2023-04-22T11:30:00.875Z,4.20
2023-04-22T11:32:29.182Z,3.80
2023-04-22T11:34:57.860Z,3.80
2023-04-22T11:37:25.416Z,3.97
2023-04-22T11:40:13.557Z,3.70
2023-04-22T11:42:40.771Z,4.03
2023-04-22T11:45:09.056Z,3.83
2023-04-22T11:47:36.667Z,3.87
2023-04-22T11:50:09.325Z,3.85
2023-04-22T11:52:46.001Z,3.60
2023-04-22T11:55:14.893Z,4.53
2023-04-22T11:57:43.339Z,3.95
2023-04-22T12:00:13.655Z,3.95
2023-04-22T12:02:42.019Z,4.20
2023-04-22T12:05:11.803Z,3.80
2023-04-22T12:07:39.958Z,4.07
2023-04-22T12:10:08.174Z,4.05
2023-04-22T12:12:37.162Z,3.90
2023-04-22T12:15:13.608Z,4.12
2023-04-22T12:17:45.046Z,4.47
2023-04-22T12:20:13.083Z,4.32
2023-04-22T12:22:40.497Z,3.80
2023-04-22T12:25:09.921Z,3.92
2023-04-22T12:27:37.414Z,4.15
2023-04-22T12:30:06.066Z,4.00
2023-04-22T12:32:34.617Z,3.55
2023-04-22T12:35:02.096Z,3.67
2023-04-22T12:37:29.462Z,3.92
2023-04-22T12:39:57.182Z,4.07
2023-04-22T12:42:24.590Z,4.00
2023-04-22T12:44:51.952Z,4.50
2023-04-22T12:47:19.885Z,4.30
2023-04-22T12:49:47.739Z,3.75
2023-04-22T12:52:15.267Z,4.68
2023-04-22T12:54:42.935Z,3.90
2023-04-22T12:57:10.423Z,4.05
2023-04-22T12:59:38.078Z,4.00
2023-04-22T13:02:06.136Z,3.67
2023-04-22T13:04:33.731Z,3.90
2023-04-22T13:07:01.202Z,4.40
2023-04-22T13:09:28.940Z,4.65
2023-04-22T13:11:56.346Z,4.15
2023-04-22T13:14:23.793Z,4.22
2023-04-22T13:16:52.058Z,7.97
2023-04-22T13:19:19.843Z,6.65
2023-04-22T13:21:47.251Z,3.83
2023-04-22T13:24:14.928Z,4.00
2023-04-22T13:26:42.446Z,3.60
2023-04-22T13:29:14.119Z,3.42
2023-04-22T13:34:11.234Z,3.75
2023-04-22T13:36:38.635Z,3.85
2023-04-22T13:39:06.469Z,4.10
2023-04-22T13:41:33.990Z,4.12
2023-04-22T13:44:02.007Z,3.90
2023-04-22T13:46:30.001Z,3.90
2023-04-22T13:48:58.226Z,3.78
2023-04-22T13:51:25.843Z,3.40
2023-04-22T13:53:53.575Z,3.75
2023-04-22T13:56:20.993Z,4.78
2023-04-22T13:58:48.914Z,4.00
2023-04-22T14:01:16.898Z,3.15
2023-04-22T14:03:45.126Z,4.35
2023-04-22T14:06:12.663Z,3.10
2023-04-22T14:08:40.554Z,3.85
2023-04-22T14:11:08.949Z,3.42
2023-04-22T14:13:36.770Z,3.55
2023-04-22T14:16:09.734Z,3.67
2023-04-22T14:18:38.634Z,3.22
2023-04-22T14:21:09.186Z,4.00
2023-04-22T14:23:38.125Z,3.80
2023-04-22T14:26:08.333Z,3.67
2023-04-22T14:28:36.725Z,3.50
2023-04-22T14:31:04.323Z,3.50
2023-04-22T14:33:32.511Z,4.05
2023-04-22T14:36:00.007Z,3.65
2023-04-22T14:38:27.474Z,4.03
2023-04-22T14:40:55.283Z,3.12
2023-04-22T14:43:25.405Z,3.25
2023-04-22T14:45:53.102Z,3.35
2023-04-22T14:48:20.852Z,3.78
2023-04-22T14:50:48.252Z,3.53
2023-04-22T14:53:15.985Z,3.20
2023-04-22T14:55:43.687Z,3.25
2023-04-22T14:58:11.080Z,3.20
2023-04-22T15:00:38.586Z,3.80
2023-04-22T15:03:06.463Z,3.65
2023-04-22T15:05:33.965Z,3.35
2023-04-22T15:08:01.387Z,3.30
2023-04-22T15:10:29.052Z,3.12
2023-04-22T15:12:56.800Z,3.40
2023-04-22T15:15:24.299Z,3.53
2023-04-22T15:17:52.060Z,3.45
2023-04-22T15:20:22.715Z,3.17
2023-04-22T15:22:50.154Z,3.10
2023-04-22T15:25:18.458Z,3.15
2023-04-22T15:27:46.529Z,3.53
2023-04-22T15:30:14.473Z,3.12
2023-04-22T15:32:42.192Z,3.58
2023-04-22T15:35:10.045Z,3.58
2023-04-22T15:37:37.503Z,3.05
2023-04-22T15:40:06.895Z,3.45
2023-04-22T15:42:34.273Z,3.50
2023-04-22T15:45:03.873Z,3.15
2023-04-22T15:47:33.062Z,3.33
2023-04-22T15:50:06.719Z,3.40
2023-04-22T15:52:35.197Z,3.97
2023-04-22T15:55:02.613Z,3.65
2023-04-22T15:57:34.394Z,3.22
2023-04-22T16:02:43.247Z,3.15
2023-04-22T16:05:11.966Z,2.90
2023-04-22T16:07:40.242Z,3.50
2023-04-22T16:10:09.009Z,3.30
2023-04-22T16:12:36.835Z,3.08
2023-04-22T16:15:04.647Z,3.30
2023-04-22T16:17:32.276Z,3.08
2023-04-22T16:20:00.066Z,3.60
2023-04-22T16:22:27.482Z,3.05
2023-04-22T16:24:54.913Z,3.72
2023-04-22T16:27:22.607Z,3.28
2023-04-22T16:29:50.051Z,3.67
2023-04-22T16:32:17.441Z,3.45
2023-04-22T16:34:45.142Z,3.72
2023-04-22T16:37:12.525Z,3.58
2023-04-22T16:39:40.220Z,3.60
2023-04-22T16:42:08.197Z,3.60
2023-04-22T16:44:35.630Z,3.12
2023-04-22T16:47:03.131Z,3.45
2023-04-22T16:49:31.223Z,3.40
2023-04-22T16:51:59.017Z,3.33
2023-04-22T16:54:26.490Z,3.37
2023-04-22T16:56:54.153Z,3.30
2023-04-22T16:59:21.703Z,3.33
2023-04-22T17:01:49.231Z,3.47
2023-04-22T17:04:17.729Z,3.08
2023-04-22T17:06:45.997Z,3.30
2023-04-22T17:09:13.379Z,2.97
2023-04-22T17:11:41.101Z,3.75
2023-04-22T17:14:08.582Z,3.62
2023-04-22T17:16:36.218Z,3.47
2023-04-22T17:19:05.242Z,3.35
2023-04-22T17:21:34.334Z,3.12
2023-04-22T17:24:03.772Z,3.75
2023-04-22T17:26:32.384Z,5.62
2023-04-22T17:28:59.768Z,5.97
2023-04-22T17:31:27.225Z,5.70
2023-04-22T17:33:54.982Z,5.40
2023-04-22T17:36:22.417Z,6.00
2023-04-22T17:38:49.903Z,5.12
2023-04-22T17:41:18.543Z,4.53
2023-04-22T17:43:46.022Z,4.22
2023-04-22T17:46:13.495Z,4.40
2023-04-22T17:48:41.941Z,4.93
2023-04-22T17:51:10.150Z,5.00
2023-04-22T17:53:39.872Z,4.78
2023-04-22T17:56:08.590Z,5.07
2023-04-22T17:58:38.533Z,5.72
2023-04-22T18:01:06.459Z,5.20
2023-04-22T18:03:34.723Z,4.80
2023-04-22T18:06:02.705Z,5.00
2023-04-22T18:08:30.770Z,7.22
2023-04-22T18:10:58.625Z,8.27
2023-04-22T18:13:26.082Z,8.35
2023-04-22T18:15:53.589Z,7.87
2023-04-22T18:18:21.352Z,7.97
2023-04-22T18:20:48.809Z,8.18
2023-04-22T18:23:16.172Z,7.37
2023-04-22T18:25:43.930Z,7.28
2023-04-22T18:28:11.295Z,7.60
2023-04-22T18:30:38.744Z,6.00
2023-04-22T18:33:06.530Z,6.40
2023-04-22T18:35:35.601Z,7.97
2023-04-22T18:38:03.068Z,8.45
2023-04-22T18:40:30.796Z,7.47
2023-04-22T18:42:58.321Z,7.57
2023-04-22T18:45:25.782Z,8.15
2023-04-22T18:47:53.522Z,8.30
2023-04-22T18:50:27.157Z,7.75
2023-04-22T18:52:54.888Z,8.23
2023-04-22T18:55:22.479Z,9.00
2023-04-22T18:57:49.893Z,8.13
2023-04-22T19:00:17.904Z,8.68
2023-04-22T19:02:46.013Z,9.02
2023-04-22T19:05:14.556Z,8.20
2023-04-22T19:07:44.455Z,7.57
2023-04-22T19:10:12.853Z,7.82
2023-04-22T19:12:40.447Z,7.70
2023-04-22T19:15:08.601Z,7.30
2023-04-22T19:17:36.115Z,7.57
2023-04-22T19:20:05.211Z,7.57
2023-04-22T19:22:32.973Z,7.65
2023-04-22T19:25:01.082Z,8.93
2023-04-22T19:27:28.727Z,8.63
2023-04-22T19:29:56.403Z,8.73
2023-04-22T19:32:24.531Z,9.02
2023-04-22T19:34:52.258Z,8.40
2023-04-22T19:37:20.192Z,8.93
2023-04-22T19:39:47.928Z,9.00
2023-04-22T19:42:15.759Z,8.40
2023-04-22T19:44:47.252Z,9.48
2023-04-22T19:47:15.679Z,10.18
2023-04-22T19:49:43.984Z,10.18
2023-04-22T19:52:13.843Z,10.60
2023-04-22T19:54:41.713Z,9.52
2023-04-22T19:57:10.429Z,12.93
2023-04-22T19:59:40.048Z,12.18
2023-04-22T20:02:09.640Z,12.23
2023-04-22T20:04:38.220Z,11.50
2023-04-22T20:07:06.904Z,11.50
2023-04-22T20:09:34.974Z,12.43
2023-04-22T20:12:03.374Z,12.30
2023-04-22T20:14:31.546Z,13.23
2023-04-22T20:16:59.178Z,12.20
2023-04-22T20:19:28.343Z,13.93
2023-04-22T20:21:57.330Z,13.55
2023-04-22T20:24:26.713Z,13.30
2023-04-22T20:26:55.039Z,13.62
2023-04-22T20:29:22.764Z,12.77
2023-04-22T20:31:50.374Z,12.90
2023-04-22T20:34:18.278Z,13.27
2023-04-22T20:36:46.265Z,13.30
2023-04-22T20:39:14.540Z,13.35
2023-04-22T20:41:42.562Z,12.75
2023-04-22T20:44:10.669Z,11.82
2023-04-22T20:46:38.386Z,13.18
2023-04-22T20:49:07.068Z,12.07
2023-04-22T20:51:35.223Z,12.70
2023-04-22T20:54:03.846Z,13.13
2023-04-22T20:56:39.904Z,12.80
2023-04-22T20:59:07.474Z,11.80
2023-04-22T21:01:35.512Z,11.90
2023-04-22T21:04:03.754Z,11.70
2023-04-22T21:06:35.053Z,11.73
2023-04-22T21:09:03.382Z,12.10
2023-04-22T21:11:31.158Z,12.18
2023-04-22T21:13:59.289Z,11.98
2023-04-22T21:16:29.763Z,10.85
2023-04-22T21:18:59.782Z,12.23
2023-04-22T21:21:34.888Z,12.57
2023-04-22T21:24:04.903Z,12.63
2023-04-22T21:26:34.070Z,12.37
2023-04-22T21:29:01.701Z,12.68
2023-04-22T21:31:29.389Z,10.98
2023-04-22T21:33:57.455Z,11.65
2023-04-22T21:36:25.256Z,10.85
2023-04-22T21:38:52.934Z,11.23
2023-04-22T21:41:20.954Z,11.45
2023-04-22T21:43:48.767Z,10.05
2023-04-22T21:46:16.214Z,9.45
2023-04-22T21:48:44.344Z,9.10
2023-04-22T21:51:11.912Z,9.70
2023-04-22T21:53:39.279Z,9.95
2023-04-22T21:56:06.961Z,8.52
2023-04-22T21:58:34.400Z,8.88
2023-04-22T22:01:01.820Z,9.15
2023-04-22T22:03:29.682Z,8.73
2023-04-22T22:05:57.472Z,9.25
2023-04-22T22:08:24.865Z,8.60
2023-04-22T22:10:52.604Z,10.48
2023-04-22T22:13:20.069Z,8.85
2023-04-22T22:15:47.679Z,8.85
2023-04-22T22:18:15.665Z,9.43
2023-04-22T22:20:44.459Z,9.73
2023-04-22T22:23:12.074Z,9.93
2023-04-22T22:25:39.724Z,8.68
2023-04-22T22:28:07.131Z,8.65
2023-04-22T22:30:34.567Z,10.00
2023-04-22T22:33:02.332Z,9.40
2023-04-22T22:35:30.180Z,8.77
2023-04-22T22:37:57.609Z,8.77
2023-04-22T22:40:25.458Z,8.10
2023-04-22T22:42:53.205Z,8.18
2023-04-22T22:45:20.584Z,8.25
2023-04-22T22:47:48.424Z,8.40
2023-04-22T22:50:15.920Z,8.10
2023-04-22T22:52:43.311Z,7.57
2023-04-22T22:55:11.077Z,8.27
2023-04-22T22:57:38.486Z,7.53
2023-04-22T23:00:07.084Z,7.53
2023-04-22T23:02:35.115Z,7.22
2023-04-22T23:05:02.753Z,7.15
2023-04-22T23:07:30.228Z,6.53
2023-04-22T23:09:58.037Z,7.50
2023-04-22T23:12:25.589Z,7.18
2023-04-22T23:14:53.222Z,7.25
2023-04-22T23:17:22.439Z,6.82
2023-04-22T23:19:51.894Z,6.82
2023-04-22T23:22:19.351Z,6.60
2023-04-22T23:24:47.611Z,6.93
2023-04-22T23:27:16.209Z,6.85
2023-04-22T23:29:44.354Z,6.65
2023-04-22T23:32:14.952Z,6.10
2023-04-22T23:34:44.935Z,6.62
2023-04-22T23:37:14.894Z,6.45
2023-04-22T23:39:42.555Z,7.05
2023-04-22T23:42:10.828Z,6.37
2023-04-22T23:44:38.854Z,6.12
2023-04-22T23:47:06.506Z,6.10
2023-04-22T23:49:34.130Z,6.95
2023-04-22T23:52:01.810Z,6.57
2023-04-22T23:54:30.152Z,6.55
2023-04-22T23:56:58.029Z,6.82
2023-04-22T23:59:26.072Z,6.55
